sensor_id;sensor_type;location;lat;lon;timestamp;P1;durP1;ratioP1;P2;durP2;ratioP2
29238;SDS011;16267;48.194;11.546;2024-03-22T00:00:43;13.52;;;7.20;;
29238;SDS011;16267;48.194;11.546;2024-03-22T00:03:08;13.52;;;7.45;;
29238;SDS011;16267;48.194;11.546;2024-03-22T00:05:34;12.82;;;6.43;;
29238;SDS011;16267;48.194;11.546;2024-03-22T00:08:00;17.38;;;6.50;;
29238;SDS011;16267;48.194;11.546;2024-03-22T00:10:25;16.17;;;7.43;;
29238;SDS011;16267;48.194;11.546;2024-03-22T00:12:51;16.13;;;6.35;;
29238;SDS011;16267;48.194;11.546;2024-03-22T00:15:17;10.50;;;5.72;;
29238;SDS011;16267;48.194;11.546;2024-03-22T00:17:44;10.30;;;5.68;;
29238;SDS011;16267;48.194;11.546;2024-03-22T00:20:10;10.23;;;5.47;;
29238;SDS011;16267;48.194;11.546;2024-03-22T00:22:36;12.48;;;5.78;;
29238;SDS011;16267;48.194;11.546;2024-03-22T00:25:02;15.57;;;7.18;;
29238;SDS011;16267;48.194;11.546;2024-03-22T00:27:28;11.90;;;6.15;;
29238;SDS011;16267;48.194;11.546;2024-03-22T00:29:53;12.57;;;6.25;;
29238;SDS011;16267;48.194;11.546;2024-03-22T00:32:19;12.25;;;5.43;;
29238;SDS011;16267;48.194;11.546;2024-03-22T00:34:45;12.13;;;6.28;;
29238;SDS011;16267;48.194;11.546;2024-03-22T00:37:10;12.23;;;6.15;;
29238;SDS011;16267;48.194;11.546;2024-03-22T00:39:36;15.10;;;6.82;;
29238;SDS011;16267;48.194;11.546;2024-03-22T00:42:02;11.45;;;6.07;;
29238;SDS011;16267;48.194;11.546;2024-03-22T00:44:28;9.65;;;5.25;;
29238;SDS011;16267;48.194;11.546;2024-03-22T00:46:54;11.68;;;5.95;;
29238;SDS011;16267;48.194;11.546;2024-03-22T00:49:20;13.85;;;5.97;;
29238;SDS011;16267;48.194;11.546;2024-03-22T00:51:45;14.90;;;5.80;;
29238;SDS011;16267;48.194;11.546;2024-03-22T00:54:12;15.35;;;6.85;;
29238;SDS011;16267;48.194;11.546;2024-03-22T00:56:38;13.23;;;5.57;;
29238;SDS011;16267;48.194;11.546;2024-03-22T00:59:04;11.60;;;5.55;;
29238;SDS011;16267;48.194;11.546;2024-03-22T01:01:29;10.65;;;6.13;;
29238;SDS011;16267;48.194;11.546;2024-03-22T01:03:55;11.38;;;5.47;;
29238;SDS011;16267;48.194;11.546;2024-03-22T01:06:21;11.52;;;6.28;;
29238;SDS011;16267;48.194;11.546;2024-03-22T01:08:50;11.48;;;5.65;;
29238;SDS011;16267;48.194;11.546;2024-03-22T01:11:16;9.73;;;5.30;;
29238;SDS011;16267;48.194;11.546;2024-03-22T01:13:43;10.25;;;5.70;;
29238;SDS011;16267;48.194;11.546;2024-03-22T01:16:08;14.60;;;5.63;;
29238;SDS011;16267;48.194;11.546;2024-03-22T01:18:35;10.75;;;5.80;;
29238;SDS011;16267;48.194;11.546;2024-03-22T01:21:01;9.13;;;5.10;;
29238;SDS011;16267;48.194;11.546;2024-03-22T01:23:27;9.52;;;5.05;;
29238;SDS011;16267;48.194;11.546;2024-03-22T01:25:53;8.82;;;4.78;;
29238;SDS011;16267;48.194;11.546;2024-03-22T01:28:18;11.02;;;4.68;;
29238;SDS011;16267;48.194;11.546;2024-03-22T01:30:44;11.85;;;5.68;;
29238;SDS011;16267;48.194;11.546;2024-03-22T01:33:10;10.75;;;5.65;;
29238;SDS011;16267;48.194;11.546;2024-03-22T01:35:36;12.60;;;5.47;;
29238;SDS011;16267;48.194;11.546;2024-03-22T01:38:01;12.20;;;5.75;;
29238;SDS011;16267;48.194;11.546;2024-03-22T01:40:27;12.55;;;5.70;;
29238;SDS011;16267;48.194;11.546;2024-03-22T01:42:55;11.85;;;5.13;;
29238;SDS011;16267;48.194;11.546;2024-03-22T01:45:21;11.82;;;5.57;;
29238;SDS011;16267;48.194;11.546;2024-03-22T01:47:49;13.43;;;5.68;;
29238;SDS011;16267;48.194;11.546;2024-03-22T01:50:21;5.75;;;3.17;;
29238;SDS011;16267;48.194;11.546;2024-03-22T01:52:47;9.80;;;5.65;;
29238;SDS011;16267;48.194;11.546;2024-03-22T01:55:13;21.92;;;6.35;;
29238;SDS011;16267;48.194;11.546;2024-03-22T01:57:39;9.57;;;5.32;;
29238;SDS011;16267;48.194;11.546;2024-03-22T02:00:06;12.05;;;5.30;;
29238;SDS011;16267;48.194;11.546;2024-03-22T02:02:35;8.90;;;5.20;;
29238;SDS011;16267;48.194;11.546;2024-03-22T02:07:44;14.38;;;5.78;;
29238;SDS011;16267;48.194;11.546;2024-03-22T02:10:11;11.13;;;5.68;;
29238;SDS011;16267;48.194;11.546;2024-03-22T02:12:38;12.05;;;6.05;;
29238;SDS011;16267;48.194;11.546;2024-03-22T02:15:04;10.95;;;5.32;;
29238;SDS011;16267;48.194;11.546;2024-03-22T02:17:32;12.50;;;5.75;;
29238;SDS011;16267;48.194;11.546;2024-03-22T02:19:58;11.32;;;5.72;;
29238;SDS011;16267;48.194;11.546;2024-03-22T02:22:25;10.25;;;5.55;;
29238;SDS011;16267;48.194;11.546;2024-03-22T02:24:52;12.75;;;5.82;;
29238;SDS011;16267;48.194;11.546;2024-03-22T02:27:18;13.27;;;6.05;;
29238;SDS011;16267;48.194;11.546;2024-03-22T02:29:44;9.90;;;5.28;;
29238;SDS011;16267;48.194;11.546;2024-03-22T02:32:10;9.90;;;5.13;;
29238;SDS011;16267;48.194;11.546;2024-03-22T02:34:36;12.07;;;5.35;;
29238;SDS011;16267;48.194;11.546;2024-03-22T02:37:02;11.05;;;6.05;;
29238;SDS011;16267;48.194;11.546;2024-03-22T02:39:28;11.23;;;6.60;;
29238;SDS011;16267;48.194;11.546;2024-03-22T02:41:54;9.90;;;5.53;;
29238;SDS011;16267;48.194;11.546;2024-03-22T02:44:21;12.38;;;6.20;;
29238;SDS011;16267;48.194;11.546;2024-03-22T02:46:46;10.73;;;6.07;;
29238;SDS011;16267;48.194;11.546;2024-03-22T02:49:12;13.82;;;5.70;;
29238;SDS011;16267;48.194;11.546;2024-03-22T02:51:38;9.18;;;4.80;;
29238;SDS011;16267;48.194;11.546;2024-03-22T02:54:04;14.52;;;5.72;;
29238;SDS011;16267;48.194;11.546;2024-03-22T02:56:30;12.45;;;5.85;;
29238;SDS011;16267;48.194;11.546;2024-03-22T02:58:56;14.05;;;6.05;;
29238;SDS011;16267;48.194;11.546;2024-03-22T03:01:22;9.95;;;5.28;;
29238;SDS011;16267;48.194;11.546;2024-03-22T03:03:47;11.60;;;5.82;;
29238;SDS011;16267;48.194;11.546;2024-03-22T03:06:13;9.40;;;5.60;;
29238;SDS011;16267;48.194;11.546;2024-03-22T03:08:40;10.55;;;5.10;;
29238;SDS011;16267;48.194;11.546;2024-03-22T03:11:05;14.13;;;5.53;;
29238;SDS011;16267;48.194;11.546;2024-03-22T03:13:31;9.75;;;5.97;;
29238;SDS011;16267;48.194;11.546;2024-03-22T03:15:57;10.25;;;5.25;;
29238;SDS011;16267;48.194;11.546;2024-03-22T03:18:23;11.90;;;5.82;;
29238;SDS011;16267;48.194;11.546;2024-03-22T03:20:49;12.35;;;5.65;;
29238;SDS011;16267;48.194;11.546;2024-03-22T03:23:15;13.00;;;7.03;;
29238;SDS011;16267;48.194;11.546;2024-03-22T03:25:40;10.13;;;6.30;;
29238;SDS011;16267;48.194;11.546;2024-03-22T03:28:06;9.60;;;5.03;;
29238;SDS011;16267;48.194;11.546;2024-03-22T03:30:32;9.15;;;4.85;;
29238;SDS011;16267;48.194;11.546;2024-03-22T03:33:00;15.23;;;6.63;;
29238;SDS011;16267;48.194;11.546;2024-03-22T03:35:26;11.50;;;5.97;;
29238;SDS011;16267;48.194;11.546;2024-03-22T03:37:52;16.17;;;5.72;;
29238;SDS011;16267;48.194;11.546;2024-03-22T03:40:18;11.75;;;6.00;;
29238;SDS011;16267;48.194;11.546;2024-03-22T03:42:43;15.25;;;7.38;;
29238;SDS011;16267;48.194;11.546;2024-03-22T03:45:09;11.30;;;5.07;;
29238;SDS011;16267;48.194;11.546;2024-03-22T03:47:35;13.02;;;6.07;;
29238;SDS011;16267;48.194;11.546;2024-03-22T03:50:01;18.08;;;5.78;;
29238;SDS011;16267;48.194;11.546;2024-03-22T03:52:27;12.98;;;5.60;;
29238;SDS011;16267;48.194;11.546;2024-03-22T03:54:53;10.82;;;5.60;;
29238;SDS011;16267;48.194;11.546;2024-03-22T03:57:18;14.50;;;5.55;;
29238;SDS011;16267;48.194;11.546;2024-03-22T03:59:44;13.35;;;5.30;;
29238;SDS011;16267;48.194;11.546;2024-03-22T04:02:10;19.15;;;7.85;;
29238;SDS011;16267;48.194;11.546;2024-03-22T04:04:35;12.50;;;6.15;;
29238;SDS011;16267;48.194;11.546;2024-03-22T04:07:01;11.75;;;6.13;;
29238;SDS011;16267;48.194;11.546;2024-03-22T04:09:27;16.90;;;6.75;;
29238;SDS011;16267;48.194;11.546;2024-03-22T04:11:53;11.32;;;6.32;;
29238;SDS011;16267;48.194;11.546;2024-03-22T04:14:18;12.05;;;6.13;;
29238;SDS011;16267;48.194;11.546;2024-03-22T04:16:44;15.02;;;8.32;;
29238;SDS011;16267;48.194;11.546;2024-03-22T04:19:10;10.50;;;6.22;;
29238;SDS011;16267;48.194;11.546;2024-03-22T04:21:35;13.73;;;6.63;;
29238;SDS011;16267;48.194;11.546;2024-03-22T04:24:01;14.23;;;6.82;;
29238;SDS011;16267;48.194;11.546;2024-03-22T04:26:27;13.57;;;6.45;;
29238;SDS011;16267;48.194;11.546;2024-03-22T04:28:52;11.45;;;5.80;;
29238;SDS011;16267;48.194;11.546;2024-03-22T04:31:18;12.30;;;6.25;;
29238;SDS011;16267;48.194;11.546;2024-03-22T04:33:44;12.65;;;6.38;;
29238;SDS011;16267;48.194;11.546;2024-03-22T04:36:09;13.55;;;6.13;;
29238;SDS011;16267;48.194;11.546;2024-03-22T04:38:35;14.50;;;7.00;;
29238;SDS011;16267;48.194;11.546;2024-03-22T04:41:01;11.48;;;5.88;;
29238;SDS011;16267;48.194;11.546;2024-03-22T04:43:27;10.40;;;5.68;;
29238;SDS011;16267;48.194;11.546;2024-03-22T04:45:53;11.45;;;5.22;;
29238;SDS011;16267;48.194;11.546;2024-03-22T04:48:19;12.13;;;5.97;;
29238;SDS011;16267;48.194;11.546;2024-03-22T04:50:50;8.05;;;4.68;;
29238;SDS011;16267;48.194;11.546;2024-03-22T04:53:18;11.45;;;6.32;;
29238;SDS011;16267;48.194;11.546;2024-03-22T04:55:48;15.75;;;6.38;;
29238;SDS011;16267;48.194;11.546;2024-03-22T04:58:15;13.40;;;6.22;;
29238;SDS011;16267;48.194;11.546;2024-03-22T05:00:42;13.20;;;5.95;;
29238;SDS011;16267;48.194;11.546;2024-03-22T05:03:09;10.45;;;5.15;;
29238;SDS011;16267;48.194;11.546;2024-03-22T05:05:34;9.88;;;4.93;;
29238;SDS011;16267;48.194;11.546;2024-03-22T05:08:01;11.75;;;5.85;;
29238;SDS011;16267;48.194;11.546;2024-03-22T05:10:27;13.13;;;6.18;;
29238;SDS011;16267;48.194;11.546;2024-03-22T05:12:55;9.55;;;5.45;;
29238;SDS011;16267;48.194;11.546;2024-03-22T05:15:21;12.13;;;5.65;;
29238;SDS011;16267;48.194;11.546;2024-03-22T05:17:48;9.88;;;5.30;;
29238;SDS011;16267;48.194;11.546;2024-03-22T05:20:14;14.70;;;5.80;;
29238;SDS011;16267;48.194;11.546;2024-03-22T05:22:41;14.77;;;6.80;;
29238;SDS011;16267;48.194;11.546;2024-03-22T05:25:07;8.73;;;5.30;;
29238;SDS011;16267;48.194;11.546;2024-03-22T05:27:34;15.25;;;6.82;;
29238;SDS011;16267;48.194;11.546;2024-03-22T05:30:00;12.18;;;5.43;;
29238;SDS011;16267;48.194;11.546;2024-03-22T05:32:25;13.75;;;6.18;;
29238;SDS011;16267;48.194;11.546;2024-03-22T05:34:52;14.73;;;5.60;;
29238;SDS011;16267;48.194;11.546;2024-03-22T05:37:18;16.83;;;6.57;;
29238;SDS011;16267;48.194;11.546;2024-03-22T05:39:44;12.02;;;5.68;;
29238;SDS011;16267;48.194;11.546;2024-03-22T05:42:09;9.98;;;5.60;;
29238;SDS011;16267;48.194;11.546;2024-03-22T05:44:35;10.52;;;5.60;;
29238;SDS011;16267;48.194;11.546;2024-03-22T05:47:01;13.60;;;5.70;;
29238;SDS011;16267;48.194;11.546;2024-03-22T05:49:26;12.85;;;6.05;;
29238;SDS011;16267;48.194;11.546;2024-03-22T05:51:52;11.65;;;5.80;;
29238;SDS011;16267;48.194;11.546;2024-03-22T05:54:18;10.15;;;5.43;;
29238;SDS011;16267;48.194;11.546;2024-03-22T05:56:45;10.32;;;5.45;;
29238;SDS011;16267;48.194;11.546;2024-03-22T05:59:11;9.27;;;5.88;;
29238;SDS011;16267;48.194;11.546;2024-03-22T06:01:36;11.45;;;5.95;;
29238;SDS011;16267;48.194;11.546;2024-03-22T06:04:03;10.23;;;5.47;;
29238;SDS011;16267;48.194;11.546;2024-03-22T06:06:31;8.68;;;5.25;;
29238;SDS011;16267;48.194;11.546;2024-03-22T06:08:59;8.32;;;4.47;;
29238;SDS011;16267;48.194;11.546;2024-03-22T06:11:28;10.30;;;5.85;;
29238;SDS011;16267;48.194;11.546;2024-03-22T06:13:57;12.48;;;6.03;;
29238;SDS011;16267;48.194;11.546;2024-03-22T06:16:22;12.57;;;5.15;;
29238;SDS011;16267;48.194;11.546;2024-03-22T06:18:48;12.35;;;5.82;;
29238;SDS011;16267;48.194;11.546;2024-03-22T06:21:14;10.35;;;5.55;;
29238;SDS011;16267;48.194;11.546;2024-03-22T06:23:40;10.32;;;5.05;;
29238;SDS011;16267;48.194;11.546;2024-03-22T06:26:06;10.60;;;5.28;;
29238;SDS011;16267;48.194;11.546;2024-03-22T06:28:33;15.20;;;5.45;;
29238;SDS011;16267;48.194;11.546;2024-03-22T06:30:58;12.68;;;5.82;;
29238;SDS011;16267;48.194;11.546;2024-03-22T06:33:24;10.50;;;5.85;;
29238;SDS011;16267;48.194;11.546;2024-03-22T06:35:50;10.43;;;5.18;;
29238;SDS011;16267;48.194;11.546;2024-03-22T06:38:15;10.45;;;5.70;;
29238;SDS011;16267;48.194;11.546;2024-03-22T06:40:41;8.07;;;5.07;;
29238;SDS011;16267;48.194;11.546;2024-03-22T06:43:07;8.75;;;5.05;;
29238;SDS011;16267;48.194;11.546;2024-03-22T06:45:33;16.80;;;6.40;;
29238;SDS011;16267;48.194;11.546;2024-03-22T06:47:59;13.65;;;6.32;;
29238;SDS011;16267;48.194;11.546;2024-03-22T06:50:25;10.55;;;5.88;;
29238;SDS011;16267;48.194;11.546;2024-03-22T06:52:51;11.52;;;5.70;;
29238;SDS011;16267;48.194;11.546;2024-03-22T06:55:18;10.60;;;5.57;;
29238;SDS011;16267;48.194;11.546;2024-03-22T06:57:48;11.18;;;5.55;;
29238;SDS011;16267;48.194;11.546;2024-03-22T07:00:16;10.80;;;5.05;;
29238;SDS011;16267;48.194;11.546;2024-03-22T07:02:44;12.15;;;6.72;;
29238;SDS011;16267;48.194;11.546;2024-03-22T07:05:11;15.75;;;5.97;;
29238;SDS011;16267;48.194;11.546;2024-03-22T07:07:37;10.20;;;5.70;;
29238;SDS011;16267;48.194;11.546;2024-03-22T07:10:03;9.18;;;5.40;;
29238;SDS011;16267;48.194;11.546;2024-03-22T07:12:31;12.85;;;5.05;;
29238;SDS011;16267;48.194;11.546;2024-03-22T07:14:58;9.85;;;4.80;;
29238;SDS011;16267;48.194;11.546;2024-03-22T07:17:25;10.00;;;5.72;;
29238;SDS011;16267;48.194;11.546;2024-03-22T07:19:51;10.52;;;4.93;;
29238;SDS011;16267;48.194;11.546;2024-03-22T07:22:18;13.63;;;5.53;;
29238;SDS011;16267;48.194;11.546;2024-03-22T07:24:44;11.32;;;4.38;;
29238;SDS011;16267;48.194;11.546;2024-03-22T07:27:11;8.27;;;4.65;;
29238;SDS011;16267;48.194;11.546;2024-03-22T07:29:37;7.55;;;4.30;;
29238;SDS011;16267;48.194;11.546;2024-03-22T07:32:02;9.10;;;4.43;;
29238;SDS011;16267;48.194;11.546;2024-03-22T07:34:30;8.75;;;5.18;;
29238;SDS011;16267;48.194;11.546;2024-03-22T07:36:56;10.88;;;4.72;;
29238;SDS011;16267;48.194;11.546;2024-03-22T07:39:22;11.18;;;4.97;;
29238;SDS011;16267;48.194;11.546;2024-03-22T07:41:49;10.38;;;4.88;;
29238;SDS011;16267;48.194;11.546;2024-03-22T07:44:15;9.38;;;4.80;;
29238;SDS011;16267;48.194;11.546;2024-03-22T07:46:43;8.82;;;4.72;;
29238;SDS011;16267;48.194;11.546;2024-03-22T07:49:10;7.57;;;4.45;;
29238;SDS011;16267;48.194;11.546;2024-03-22T07:51:37;10.18;;;4.63;;
29238;SDS011;16267;48.194;11.546;2024-03-22T07:54:03;8.43;;;4.70;;
29238;SDS011;16267;48.194;11.546;2024-03-22T07:56:28;8.40;;;4.60;;
29238;SDS011;16267;48.194;11.546;2024-03-22T07:58:55;10.35;;;4.93;;
29238;SDS011;16267;48.194;11.546;2024-03-22T08:01:21;7.22;;;4.00;;
29238;SDS011;16267;48.194;11.546;2024-03-22T08:03:46;9.35;;;4.25;;
29238;SDS011;16267;48.194;11.546;2024-03-22T08:06:12;9.30;;;4.13;;
29238;SDS011;16267;48.194;11.546;2024-03-22T08:08:38;7.18;;;4.15;;
29238;SDS011;16267;48.194;11.546;2024-03-22T08:11:04;6.93;;;3.72;;
29238;SDS011;16267;48.194;11.546;2024-03-22T08:13:30;7.07;;;4.32;;
29238;SDS011;16267;48.194;11.546;2024-03-22T08:15:56;7.85;;;4.28;;
29238;SDS011;16267;48.194;11.546;2024-03-22T08:18:21;12.50;;;4.35;;
29238;SDS011;16267;48.194;11.546;2024-03-22T08:20:47;9.88;;;4.32;;
29238;SDS011;16267;48.194;11.546;2024-03-22T08:23:13;7.38;;;4.25;;
29238;SDS011;16267;48.194;11.546;2024-03-22T08:25:38;11.65;;;4.70;;
29238;SDS011;16267;48.194;11.546;2024-03-22T08:28:04;6.22;;;4.18;;
29238;SDS011;16267;48.194;11.546;2024-03-22T08:30:30;8.68;;;4.38;;
29238;SDS011;16267;48.194;11.546;2024-03-22T08:32:55;9.02;;;4.40;;
29238;SDS011;16267;48.194;11.546;2024-03-22T08:35:21;9.13;;;4.40;;
29238;SDS011;16267;48.194;11.546;2024-03-22T08:37:47;10.23;;;4.05;;
29238;SDS011;16267;48.194;11.546;2024-03-22T08:40:13;7.15;;;3.90;;
29238;SDS011;16267;48.194;11.546;2024-03-22T08:42:39;6.22;;;3.80;;
29238;SDS011;16267;48.194;11.546;2024-03-22T08:45:05;9.27;;;3.80;;
29238;SDS011;16267;48.194;11.546;2024-03-22T08:47:32;8.50;;;4.32;;
29238;SDS011;16267;48.194;11.546;2024-03-22T08:49:58;7.85;;;3.85;;
29238;SDS011;16267;48.194;11.546;2024-03-22T08:52:25;5.88;;;3.63;;
29238;SDS011;16267;48.194;11.546;2024-03-22T08:54:51;9.50;;;4.45;;
29238;SDS011;16267;48.194;11.546;2024-03-22T08:57:17;5.82;;;3.63;;
29238;SDS011;16267;48.194;11.546;2024-03-22T08:59:44;7.32;;;4.28;;
29238;SDS011;16267;48.194;11.546;2024-03-22T09:02:10;11.40;;;3.67;;
29238;SDS011;16267;48.194;11.546;2024-03-22T09:04:36;8.95;;;4.13;;
29238;SDS011;16267;48.194;11.546;2024-03-22T09:07:03;7.68;;;3.88;;
29238;SDS011;16267;48.194;11.546;2024-03-22T09:09:29;9.48;;;4.30;;
29238;SDS011;16267;48.194;11.546;2024-03-22T09:11:55;13.30;;;3.78;;
29238;SDS011;16267;48.194;11.546;2024-03-22T09:14:20;6.53;;;3.85;;
29238;SDS011;16267;48.194;11.546;2024-03-22T09:16:46;7.43;;;3.13;;
29238;SDS011;16267;48.194;11.546;2024-03-22T09:19:12;6.20;;;3.35;;
29238;SDS011;16267;48.194;11.546;2024-03-22T09:21:38;5.10;;;3.20;;
29238;SDS011;16267;48.194;11.546;2024-03-22T09:24:03;8.18;;;3.63;;
29238;SDS011;16267;48.194;11.546;2024-03-22T09:26:29;6.70;;;3.40;;
29238;SDS011;16267;48.194;11.546;2024-03-22T09:29:00;5.35;;;2.67;;
29238;SDS011;16267;48.194;11.546;2024-03-22T09:31:26;4.70;;;2.67;;
29238;SDS011;16267;48.194;11.546;2024-03-22T09:33:52;6.05;;;3.30;;
29238;SDS011;16267;48.194;11.546;2024-03-22T09:36:18;6.30;;;3.58;;
29238;SDS011;16267;48.194;11.546;2024-03-22T09:38:43;5.40;;;3.00;;
29238;SDS011;16267;48.194;11.546;2024-03-22T09:41:09;6.93;;;3.67;;
29238;SDS011;16267;48.194;11.546;2024-03-22T09:43:35;6.63;;;2.75;;
29238;SDS011;16267;48.194;11.546;2024-03-22T09:46:02;7.28;;;3.53;;
29238;SDS011;16267;48.194;11.546;2024-03-22T09:48:28;4.80;;;2.97;;
29238;SDS011;16267;48.194;11.546;2024-03-22T09:50:56;4.22;;;2.70;;
29238;SDS011;16267;48.194;11.546;2024-03-22T09:53:21;5.55;;;3.25;;
29238;SDS011;16267;48.194;11.546;2024-03-22T09:55:48;4.00;;;2.90;;
29238;SDS011;16267;48.194;11.546;2024-03-22T09:58:16;7.82;;;3.20;;
29238;SDS011;16267;48.194;11.546;2024-03-22T10:00:42;4.57;;;2.95;;
29238;SDS011;16267;48.194;11.546;2024-03-22T10:03:09;4.57;;;2.75;;
29238;SDS011;16267;48.194;11.546;2024-03-22T10:05:35;4.35;;;2.80;;
29238;SDS011;16267;48.194;11.546;2024-03-22T10:08:02;5.07;;;2.97;;
29238;SDS011;16267;48.194;11.546;2024-03-22T10:10:30;6.60;;;2.92;;
29238;SDS011;16267;48.194;11.546;2024-03-22T10:13:03;6.22;;;3.30;;
29238;SDS011;16267;48.194;11.546;2024-03-22T10:15:31;5.33;;;3.00;;
29238;SDS011;16267;48.194;11.546;2024-03-22T10:17:57;5.63;;;3.20;;
29238;SDS011;16267;48.194;11.546;2024-03-22T10:20:23;5.07;;;2.70;;
29238;SDS011;16267;48.194;11.546;2024-03-22T10:22:54;6.20;;;2.80;;
29238;SDS011;16267;48.194;11.546;2024-03-22T10:25:23;7.70;;;3.17;;
29238;SDS011;16267;48.194;11.546;2024-03-22T10:27:49;5.88;;;2.67;;
29238;SDS011;16267;48.194;11.546;2024-03-22T10:30:15;4.65;;;3.00;;
29238;SDS011;16267;48.194;11.546;2024-03-22T10:32:45;11.60;;;2.88;;
29238;SDS011;16267;48.194;11.546;2024-03-22T10:35:14;4.32;;;2.72;;
29238;SDS011;16267;48.194;11.546;2024-03-22T10:37:40;5.55;;;2.65;;
29238;SDS011;16267;48.194;11.546;2024-03-22T10:40:07;3.35;;;2.47;;
29238;SDS011;16267;48.194;11.546;2024-03-22T10:42:41;5.80;;;3.15;;
29238;SDS011;16267;48.194;11.546;2024-03-22T10:45:09;5.65;;;2.85;;
29238;SDS011;16267;48.194;11.546;2024-03-22T10:47:36;4.90;;;3.05;;
29238;SDS011;16267;48.194;11.546;2024-03-22T10:50:09;5.43;;;2.92;;
29238;SDS011;16267;48.194;11.546;2024-03-22T10:52:40;5.47;;;3.30;;
29238;SDS011;16267;48.194;11.546;2024-03-22T10:55:18;4.82;;;3.50;;
29238;SDS011;16267;48.194;11.546;2024-03-22T10:57:58;5.70;;;2.40;;
29238;SDS011;16267;48.194;11.546;2024-03-22T11:00:27;5.05;;;2.75;;
29238;SDS011;16267;48.194;11.546;2024-03-22T11:03:03;6.05;;;2.67;;
29238;SDS011;16267;48.194;11.546;2024-03-22T11:05:30;5.03;;;3.28;;
29238;SDS011;16267;48.194;11.546;2024-03-22T11:07:59;6.63;;;3.35;;
29238;SDS011;16267;48.194;11.546;2024-03-22T11:10:29;4.55;;;3.15;;
29238;SDS011;16267;48.194;11.546;2024-03-22T11:13:05;8.73;;;3.60;;
29238;SDS011;16267;48.194;11.546;2024-03-22T11:15:33;4.00;;;2.70;;
29238;SDS011;16267;48.194;11.546;2024-03-22T11:18:00;4.90;;;2.63;;
29238;SDS011;16267;48.194;11.546;2024-03-22T11:20:26;5.72;;;2.53;;
29238;SDS011;16267;48.194;11.546;2024-03-22T11:22:53;5.28;;;3.10;;
29238;SDS011;16267;48.194;11.546;2024-03-22T11:25:19;7.45;;;3.10;;
29238;SDS011;16267;48.194;11.546;2024-03-22T11:27:46;9.15;;;3.60;;
29238;SDS011;16267;48.194;11.546;2024-03-22T11:30:12;5.45;;;2.88;;
29238;SDS011;16267;48.194;11.546;2024-03-22T11:32:38;4.47;;;2.70;;
29238;SDS011;16267;48.194;11.546;2024-03-22T11:35:10;4.60;;;2.80;;
29238;SDS011;16267;48.194;11.546;2024-03-22T11:37:39;4.55;;;2.83;;
29238;SDS011;16267;48.194;11.546;2024-03-22T11:40:08;5.47;;;2.78;;
29238;SDS011;16267;48.194;11.546;2024-03-22T11:42:35;3.75;;;2.83;;
29238;SDS011;16267;48.194;11.546;2024-03-22T11:45:03;5.28;;;3.00;;
29238;SDS011;16267;48.194;11.546;2024-03-22T11:47:31;4.07;;;2.60;;
29238;SDS011;16267;48.194;11.546;2024-03-22T11:49:58;3.63;;;2.63;;
29238;SDS011;16267;48.194;11.546;2024-03-22T11:52:25;4.20;;;2.58;;
29238;SDS011;16267;48.194;11.546;2024-03-22T11:54:51;7.63;;;3.40;;
29238;SDS011;16267;48.194;11.546;2024-03-22T11:57:18;6.07;;;2.88;;
29238;SDS011;16267;48.194;11.546;2024-03-22T11:59:46;7.50;;;2.70;;
29238;SDS011;16267;48.194;11.546;2024-03-22T12:02:11;3.70;;;2.47;;
29238;SDS011;16267;48.194;11.546;2024-03-22T12:04:56;3.97;;;2.60;;
29238;SDS011;16267;48.194;11.546;2024-03-22T12:07:21;4.38;;;2.58;;
29238;SDS011;16267;48.194;11.546;2024-03-22T12:09:49;4.95;;;2.72;;
29238;SDS011;16267;48.194;11.546;2024-03-22T12:12:17;4.45;;;2.88;;
29238;SDS011;16267;48.194;11.546;2024-03-22T12:14:46;6.10;;;2.85;;
29238;SDS011;16267;48.194;11.546;2024-03-22T12:17:12;3.10;;;1.95;;
29238;SDS011;16267;48.194;11.546;2024-03-22T12:19:38;3.83;;;2.33;;
29238;SDS011;16267;48.194;11.546;2024-03-22T12:22:03;6.07;;;2.35;;
29238;SDS011;16267;48.194;11.546;2024-03-22T12:24:31;6.63;;;2.40;;
29238;SDS011;16267;48.194;11.546;2024-03-22T12:26:57;4.97;;;2.50;;
29238;SDS011;16267;48.194;11.546;2024-03-22T12:29:23;7.07;;;3.00;;
29238;SDS011;16267;48.194;11.546;2024-03-22T12:31:49;4.47;;;2.70;;
29238;SDS011;16267;48.194;11.546;2024-03-22T12:34:15;10.95;;;3.47;;
29238;SDS011;16267;48.194;11.546;2024-03-22T12:36:41;5.57;;;2.72;;
29238;SDS011;16267;48.194;11.546;2024-03-22T12:39:07;5.00;;;2.92;;
29238;SDS011;16267;48.194;11.546;2024-03-22T12:41:33;2.80;;;2.25;;
29238;SDS011;16267;48.194;11.546;2024-03-22T12:43:59;7.70;;;2.70;;
29238;SDS011;16267;48.194;11.546;2024-03-22T12:46:26;4.30;;;2.60;;
29238;SDS011;16267;48.194;11.546;2024-03-22T12:48:55;8.18;;;3.22;;
29238;SDS011;16267;48.194;11.546;2024-03-22T12:51:21;4.82;;;2.85;;
29238;SDS011;16267;48.194;11.546;2024-03-22T12:53:46;5.50;;;2.35;;
29238;SDS011;16267;48.194;11.546;2024-03-22T12:56:12;3.50;;;2.15;;
29238;SDS011;16267;48.194;11.546;2024-03-22T12:58:38;4.78;;;2.03;;
29238;SDS011;16267;48.194;11.546;2024-03-22T13:01:08;3.35;;;2.17;;
29238;SDS011;16267;48.194;11.546;2024-03-22T13:03:35;3.45;;;2.20;;
29238;SDS011;16267;48.194;11.546;2024-03-22T13:06:03;3.45;;;2.33;;
29238;SDS011;16267;48.194;11.546;2024-03-22T13:08:30;3.83;;;2.10;;
29238;SDS011;16267;48.194;11.546;2024-03-22T13:10:57;3.80;;;2.30;;
29238;SDS011;16267;48.194;11.546;2024-03-22T13:13:23;4.03;;;2.13;;
29238;SDS011;16267;48.194;11.546;2024-03-22T13:15:48;4.38;;;2.47;;
29238;SDS011;16267;48.194;11.546;2024-03-22T13:18:14;3.70;;;2.30;;
29238;SDS011;16267;48.194;11.546;2024-03-22T13:20:40;4.57;;;2.00;;
29238;SDS011;16267;48.194;11.546;2024-03-22T13:23:06;3.53;;;1.77;;
29238;SDS011;16267;48.194;11.546;2024-03-22T13:25:34;3.08;;;1.80;;
29238;SDS011;16267;48.194;11.546;2024-03-22T13:28:02;3.28;;;1.88;;
29238;SDS011;16267;48.194;11.546;2024-03-22T13:30:30;2.45;;;1.58;;
29238;SDS011;16267;48.194;11.546;2024-03-22T13:32:56;3.00;;;1.92;;
29238;SDS011;16267;48.194;11.546;2024-03-22T13:35:22;3.97;;;1.80;;
29238;SDS011;16267;48.194;11.546;2024-03-22T13:37:48;3.33;;;2.13;;
29238;SDS011;16267;48.194;11.546;2024-03-22T13:40:13;3.58;;;1.40;;
29238;SDS011;16267;48.194;11.546;2024-03-22T13:42:40;4.00;;;2.05;;
29238;SDS011;16267;48.194;11.546;2024-03-22T13:45:06;2.30;;;1.58;;
29238;SDS011;16267;48.194;11.546;2024-03-22T13:47:32;3.33;;;1.80;;
29238;SDS011;16267;48.194;11.546;2024-03-22T13:49:58;2.47;;;1.70;;
29238;SDS011;16267;48.194;11.546;2024-03-22T13:52:23;5.18;;;2.30;;
29238;SDS011;16267;48.194;11.546;2024-03-22T13:54:50;4.10;;;1.70;;
29238;SDS011;16267;48.194;11.546;2024-03-22T13:57:16;2.45;;;1.92;;
29238;SDS011;16267;48.194;11.546;2024-03-22T13:59:42;3.13;;;1.73;;
29238;SDS011;16267;48.194;11.546;2024-03-22T14:02:09;4.25;;;1.67;;
29238;SDS011;16267;48.194;11.546;2024-03-22T14:04:35;3.17;;;1.55;;
29238;SDS011;16267;48.194;11.546;2024-03-22T14:07:00;2.25;;;1.52;;
29238;SDS011;16267;48.194;11.546;2024-03-22T14:09:30;3.17;;;1.73;;
29238;SDS011;16267;48.194;11.546;2024-03-22T14:11:57;3.95;;;1.90;;
29238;SDS011;16267;48.194;11.546;2024-03-22T14:14:24;3.75;;;1.35;;
29238;SDS011;16267;48.194;11.546;2024-03-22T14:16:51;4.53;;;1.50;;
29238;SDS011;16267;48.194;11.546;2024-03-22T14:19:17;1.73;;;1.25;;
29238;SDS011;16267;48.194;11.546;2024-03-22T14:21:44;1.55;;;1.20;;
29238;SDS011;16267;48.194;11.546;2024-03-22T14:24:14;3.58;;;1.23;;
29238;SDS011;16267;48.194;11.546;2024-03-22T14:26:40;2.47;;;1.80;;